Nearby METAR Reports

 

EGTE - Exeter Airport, United Kingdom
Distance from station: S 19km
Updated: 24/11/2017 14:20
Few Clouds
Few Clouds
 Wind from NW
Wind: NW 9 km/h
Temperature: 9°C
Wind Chill: 7°C
Dew Point: 4°C
Humidity: 71%
Barometer: 1012 hPa
Clouds: Few Clouds
Visibility: 10 km
Cloud details: Few Clouds 914 m
2017/11/24 14:20 EGTE 241420Z 31005KT 260V340 9999 FEW030 09/04 Q1012
EGDY - Yeovilton (navy), United Kingdom
Distance from station: ENE 55km
Updated: 24/11/2017 13:50
Few Clouds
Few Clouds
 Wind from WNW
Wind: WNW 2 km/h
Temperature: 9°C
Dew Point: 5°C
Humidity: 76%
Barometer: 1012 hPa
Clouds: Few Clouds
Visibility: 10 km
Cloud details: Few Clouds 549 m
2017/11/24 13:50 EGDY 241350Z 29001KT 9999 FEW018 09/05 Q1012 BLU NOSIG
 
EGFF - Cardiff-Wales Ar, United Kingdom
Distance from station: N 56km
Updated: 24/11/2017 14:20
Clear
Clear
 Wind from WNW
Wind: WNW 11 km/h
Temperature: 8°C
Wind Chill: 6°C
Dew Point: 2°C
Humidity: 66%
Barometer: 1012 hPa
Clouds: Clear
Visibility: 10 km
2017/11/24 14:20 EGFF 241420Z AUTO 30006KT 9999 NCD 08/02 Q1012
EGDX - St Athan Raf, United Kingdom
Distance from station: N 58km
Updated: 24/11/2017 13:50
Few Clouds
Few Clouds
 Wind from WNW
Wind: WNW 9 km/h
Temperature: 8°C
Wind Chill: 6°C
Dew Point: 0°C
Humidity: 57%
Barometer: 1012 hPa
Clouds: Few Clouds
Visibility: 10 km
Cloud details: Few Clouds 610 m
2017/11/24 13:50 EGDX 241350Z 29005KT 9999 FEW020 08/M00 Q1012 BLU
 
EGGD - Bristol/Lulsgate, United Kingdom
Distance from station: NE 71km
Updated: 24/11/2017 14:20
Clear
Clear
 Wind from WNW
Wind: WNW 11 km/h
Temperature: 7°C
Wind Chill: 5°C
Dew Point: 1°C
Humidity: 66%
Barometer: 1012 hPa
Clouds: Clear
Visibility: 10 km
2017/11/24 14:20 EGGD 241420Z AUTO 29006KT 9999 NCD 07/01 Q1012